Latest Coastal Weather Observations for Browse Island

IDD60701

Issued at 2:31 pm CST Wednesday 29 July 2015 (issued every 10 minutes, with the page automatically refreshed every 10 minutes)

About coastal observations | Map of coastal stations | Coastal observations for NT | Marine services | Other Formats
Station Details ID: 200784 Name: BROWSE ISLAND Lat: -14.11 Lon: 123.55 Height: 3.7 m
Data from the previous 72 hours. | See also: Recent months for locations in Northern Territory
Date/Time
CST
Temp

°C
Wind Pressure Rain
since 9am
mm
Weather Cloud Vis
km
Sea
Height
m
Swell
Dir
 
Speed
knots
Gust
knots
hPa Trend Height
m
Period
s
Dir
29/02:30pm 27.2 E 14 17 1016.2 - - - - - - - - -
29/02:00pm 26.7 ENE 16 20 1016.6 - - - - - - - - -
29/01:30pm 27.2 E 15 18 1017.1 - - - - - - - - -
29/01:00pm 27.7 E 15 18 1017.6 - - - - - - - - -
29/12:30pm 27.7 E 16 19 1017.9 - - - - - - - - -
29/12:00pm 27.6 E 16 19 1018.1 - - - - - - - - -
29/11:30am 27.0 ESE 17 22 1018.4 - - - - - - - - -
29/11:00am 27.0 ESE 17 20 1018.6 - - - - - - - - -
29/10:30am 27.3 E 16 20 1018.6 - - - - - - - - -
29/10:00am 27.0 E 16 19 1018.5 - - - - - - - - -
29/09:30am 26.5 ESE 13 16 1018.5 - - - - - - - - -
29/09:00am 26.1 ESE 11 14 1018.1 - - - - - - - - -
29/08:30am 25.8 ESE 10 12 1017.8 - - - - - - - - -
29/08:00am 25.6 ESE 9 11 1017.6 - - - - - - - - -
29/07:30am 25.7 ESE 10 12 1017.1 - - - - - - - - -
29/07:00am 25.7 ESE 9 11 1017.0 - - - - - - - - -
29/06:30am 25.5 ESE 9 11 1016.7 - - - - - - - - -
29/06:00am 25.6 ESE 9 11 1016.7 - - - - - - - - -
29/05:30am 25.7 E 9 11 1016.8 - - - - - - - - -
29/05:00am 25.6 E 8 11 1016.8 - - - - - - - - -
29/04:30am 25.5 ESE 8 11 1016.7 - - - - - - - - -
29/04:00am 25.6 E 8 10 1016.7 - - - - - - - - -
29/03:30am 25.6 ENE 9 11 1016.9 - - - - - - - - -
29/03:00am 25.9 ENE 11 13 1017.1 - - - - - - - - -
29/02:30am 26.1 ENE 13 16 1017.2 - - - - - - - - -
29/02:00am 25.8 ENE 11 13 1017.5 - - - - - - - - -
29/01:30am 26.1 ENE 12 14 1017.5 - - - - - - - - -
29/01:00am 26.0 ENE 11 14 1017.5 - - - - - - - - -
29/12:30am 26.0 ENE 11 13 1017.6 - - - - - - - - -
29/12:00am 26.1 ENE 12 14 1017.8 - - - - - - - - -
 
Date/Time
CST
Temp

°C
Wind Pressure Rain
since 9am
mm
Weather Cloud Vis
km
Sea
Height
m
Swell
Dir
 
Speed
knots
Gust
knots
hPa Trend Height
m
Period
s
Dir
28/11:30pm 26.2 ENE 10 11 1017.8 - - - - - - - - -
28/11:00pm 26.4 ENE 11 12 1017.8 - - - - - - - - -
28/10:30pm 26.6 NE 10 12 1017.6 - - - - - - - - -
28/10:00pm 26.6 NE 9 11 1017.6 - - - - - - - - -
28/09:30pm 26.5 ENE 8 9 1017.6 - - - - - - - - -
28/09:00pm 26.4 ENE 10 11 1017.6 - - - - - - - - -
28/08:30pm 26.4 NE 10 11 1017.2 - - - - - - - - -
28/08:00pm 26.2 NE 9 11 1017.1 - - - - - - - - -
28/07:30pm 26.2 NE 10 13 1016.8 - - - - - - - - -
28/07:00pm 26.3 ENE 11 13 1016.7 - - - - - - - - -
28/06:30pm 26.5 ENE 12 14 1016.4 - - - - - - - - -
28/06:00pm 26.7 ENE 11 14 1016.2 - - - - - - - - -
28/05:30pm 26.9 ENE 13 16 1016.0 - - - - - - - - -
28/05:00pm 27.2 ENE 14 17 1015.8 - - - - - - - - -
28/04:30pm 27.2 ENE 17 20 1015.7 - - - - - - - - -
28/04:00pm 27.1 ENE 17 21 1015.8 - - - - - - - - -
28/03:30pm 27.0 ENE 17 20 1016.0 - - - - - - - - -
28/03:00pm 27.6 ENE 17 21 1016.3 - - - - - - - - -
28/02:30pm 27.6 E 16 19 1016.8 - - - - - - - - -
28/02:00pm 27.5 E 17 21 1017.1 - - - - - - - - -
28/01:30pm 27.7 E 19 23 1017.5 - - - - - - - - -
28/01:00pm 28.2 ENE 19 23 1017.9 - - - - - - - - -
28/12:30pm 28.0 E 21 25 1018.3 - - - - - - - - -
28/12:00pm 28.0 E 19 24 1018.5 - - - - - - - - -
28/11:30am 28.4 E 20 25 1018.8 - - - - - - - - -
28/11:00am 28.4 E 14 17 1018.9 - - - - - - - - -
28/10:30am 27.4 E 11 15 1018.8 - - - - - - - - -
28/10:00am 27.2 ESE 11 13 1018.6 - - - - - - - - -
28/09:30am 27.3 E 9 11 1018.2 - - - - - - - - -
28/09:00am 26.9 ESE 9 11 1017.9 - - - - - - - - -
28/08:30am 26.5 ESE 9 10 1017.6 - - - - - - - - -
28/08:00am 26.2 ESE 8 8 1017.2 - - - - - - - - -
28/07:30am 26.2 ESE 7 7 1016.7 - - - - - - - - -
28/07:00am 26.1 E 6 7 1016.2 - - - - - - - - -
28/06:30am 25.9 E 5 6 1015.7 - - - - - - - - -
28/06:00am 25.9 E 5 7 1015.6 - - - - - - - - -
28/05:30am 25.9 ESE 6 7 1015.6 - - - - - - - - -
28/05:00am 26.1 ESE 6 7 1015.7 - - - - - - - - -
28/04:30am 25.9 ESE 6 7 1015.8 - - - - - - - - -
28/04:00am 26.0 ESE 5 6 1015.9 - - - - - - - - -
28/03:30am 26.0 ESE 5 6 1016.2 - - - - - - - - -
28/03:00am 26.0 ESE 5 5 1016.4 - - - - - - - - -
28/02:30am 25.9 ESE 5 6 1016.5 - - - - - - - - -
28/02:00am 26.0 ESE 5 5 1016.7 - - - - - - - - -
28/01:30am 26.1 E 5 5 1017.0 - - - - - - - - -
28/01:00am 26.1 E 4 5 1017.2 - - - - - - - - -
28/12:30am 26.1 E 6 7 1017.3 - - - - - - - - -
28/12:00am 26.1 E 5 6 1017.3 - - - - - - - - -
 
Date/Time
CST
Temp

°C
Wind Pressure Rain
since 9am
mm
Weather Cloud Vis
km
Sea
Height
m
Swell
Dir
 
Speed
knots
Gust
knots
hPa Trend Height
m
Period
s
Dir
27/11:30pm 26.1 E 6 7 1017.3 - - - - - - - - -
27/11:00pm 26.1 ENE 7 8 1017.0 - - - - - - - - -
27/10:30pm 26.1 E 6 7 1016.8 - - - - - - - - -
27/10:00pm 26.1 E 5 5 1016.7 - - - - - - - - -
27/09:30pm 26.0 ESE 4 5 1016.6 - - - - - - - - -
27/09:00pm 26.0 E 3 4 1016.3 - - - - - - - - -
27/08:30pm 26.1 SE 1 3 1015.7 - - - - - - - - -
27/08:00pm 26.2 CALM 0 0 1015.4 - - - - - - - - -
27/07:30pm 26.2 CALM 0 0 1015.1 - - - - - - - - -
27/07:00pm 26.6 ENE 3 4 1015.2 - - - - - - - - -
27/06:30pm 27.2 E 4 5 1015.0 - - - - - - - - -
27/06:00pm 27.5 E 5 6 1014.8 - - - - - - - - -
27/05:30pm 27.8 ENE 5 6 1014.5 - - - - - - - - -
27/05:00pm 28.1 ENE 6 7 1014.5 - - - - - - - - -
27/04:30pm 27.8 E 7 8 1014.5 - - - - - - - - -
27/04:00pm 28.7 E 7 10 1014.5 - - - - - - - - -
27/03:30pm 28.2 E 9 10 1014.6 - - - - - - - - -
27/03:00pm 28.4 E 9 11 1014.8 - - - - - - - - -
27/02:30pm 27.8 ESE 10 11 1015.2 - - - - - - - - -
27/02:00pm 27.7 SE 9 11 1015.5 - - - - - - - - -
27/01:30pm 27.8 SE 10 12 1015.8 - - - - - - - - -
27/01:00pm 27.7 SSE 7 8 1016.1 - - - - - - - - -
27/12:30pm 27.4 S 6 7 1016.3 - - - - - - - - -
27/12:00pm 27.5 SSE 6 7 1016.6 - - - - - - - - -
27/11:30am 27.3 S 5 6 1016.8 - - - - - - - - -
27/11:00am 26.7 SSW 3 4 1017.3 - - - - - - - - -
27/10:30am 26.7 SSW 4 5 1017.3 - - - - - - - - -
27/10:00am 27.8 NE 1 4 1017.4 - - - - - - - - -
27/09:30am 26.7 CALM 0 0 1017.3 - - - - - - - - -
27/09:00am 26.3 CALM 0 0 1017.1 - - - - - - - - -
27/08:30am 26.2 CALM 0 0 1016.8 - - - - - - - - -
27/08:00am 25.6 CALM 0 0 1016.6 - - - - - - - - -
27/07:30am 25.2 CALM 0 0 1016.3 - - - - - - - - -
27/07:00am 25.4 CALM 0 0 1016.1 - - - - - - - - -
27/06:30am 25.4 CALM 0 0 1016.1 - - - - - - - - -
27/06:00am 25.5 CALM 0 0 1016.0 - - - - - - - - -
27/05:30am 25.6 CALM 0 0 1016.0 - - - - - - - - -
27/05:00am 25.6 CALM 0 0 1016.0 - - - - - - - - -
27/04:30am 25.5 CALM 0 0 1016.0 - - - - - - - - -
27/04:00am 25.5 CALM 0 0 1016.1 - - - - - - - - -
27/03:30am 25.7 SE 1 3 1016.4 - - - - - - - - -
27/03:00am 25.8 SSE 3 4 1016.5 - - - - - - - - -
27/02:30am 26.0 SSE 5 5 1016.7 - - - - - - - - -
27/02:00am 26.0 SSE 5 5 1017.0 - - - - - - - - -
27/01:30am 26.1 SSE 5 6 1017.2 - - - - - - - - -
27/01:00am 26.1 SSE 4 5 1017.4 - - - - - - - - -
27/12:30am 26.3 SSE 5 5 1017.7 - - - - - - - - -
27/12:00am 26.2 SE 4 5 1017.8 - - - - - - - - -
 
Date/Time
CST
Temp

°C
Wind Pressure Rain
since 9am
mm
Weather Cloud Vis
km
Sea
Height
m
Swell
Dir
 
Speed
knots
Gust
knots
hPa Trend Height
m
Period
s
Dir
26/11:30pm 26.3 SE 4 5 1017.8 - - - - - - - - -
26/11:00pm 26.3 SE 3 4 1017.7 - - - - - - - - -
26/10:30pm 26.3 CALM 0 0 1017.6 - - - - - - - - -
26/10:00pm 26.5 S 5 6 1017.2 - - - - - - - - -
26/09:30pm 26.8 S 6 7 1017.2 - - - - - - - - -
26/09:00pm 26.8 S 8 9 1016.7 - - - - - - - - -
26/08:30pm 26.7 SSE 8 10 1016.4 - - - - - - - - -
26/08:00pm 26.5 S 10 12 1016.0 - - - - - - - - -
26/07:30pm 26.2 S 11 13 1015.7 - - - - - - - - -
26/07:00pm 26.2 S 13 14 1015.5 - - - - - - - - -
26/06:30pm 26.1 S 13 15 1015.2 - - - - - - - - -
26/06:00pm 26.3 S 14 16 1014.7 - - - - - - - - -
26/05:30pm 26.2 S 13 15 1014.6 - - - - - - - - -
26/05:00pm 26.3 S 13 15 1014.5 - - - - - - - - -
26/04:30pm 26.4 S 13 14 1014.6 - - - - - - - - -

Other Formats:

Comma delimited format used in spreadsheet applications
http://www.bom.gov.au/fwo/IDD60701/IDD60701.94103.axf

JavaScript Object Notation format (JSON) in row-major order
http://www.bom.gov.au/fwo/IDD60701/IDD60701.94103.json